Time;durP1;ratioP1;P1;durP2;ratioP2;P2;SDS_P1;SDS_P2;PMS_P1;PMS_P2;Temp;Humidity;BMP_temperature;BMP_pressure;BME280_temperature;BME280_humidity;BME280_pressure;Samples;Min_cycle;Max_cycle;Signal;HPM_P1;HPM_P2
2020/12/06 00:01:49;;;;;;;16.80;15.00;;;4.50;99.90;;;;;;5093586;28;20400;-65
2020/12/06 00:04:19;;;;;;;18.30;16.40;;;4.50;99.90;;;;;;5089647;28;20201;-65
2020/12/06 00:06:46;;;;;;;17.83;15.97;;;4.50;99.90;;;;;;5073505;28;20608;-65
2020/12/06 00:09:11;;;;;;;18.00;15.67;;;4.40;99.90;;;;;;5073471;28;20452;-65
2020/12/06 00:11:37;;;;;;;17.80;15.97;;;4.40;99.90;;;;;;5088539;28;20404;-65
2020/12/06 00:14:02;;;;;;;17.43;15.50;;;4.40;99.90;;;;;;5093497;28;20608;-65
2020/12/06 00:16:28;;;;;;;16.70;14.90;;;4.40;99.90;;;;;;5093363;28;20182;-65
2020/12/06 00:18:54;;;;;;;18.47;14.70;;;4.40;99.90;;;;;;5093553;28;20147;-65
2020/12/06 00:21:21;;;;;;;19.10;16.83;;;4.30;99.90;;;;;;5093381;28;20277;-65
2020/12/06 00:23:48;;;;;;;19.33;16.70;;;4.30;99.90;;;;;;5092195;28;20166;-65
2020/12/06 00:26:19;;;;;;;22.47;16.60;;;4.30;99.90;;;;;;5093210;28;20438;-65
2020/12/06 00:28:44;;;;;;;16.40;14.67;;;4.20;99.90;;;;;;5091772;28;20463;-65
2020/12/06 00:31:11;;;;;;;20.90;17.30;;;4.20;99.90;;;;;;5093249;28;20468;-65
2020/12/06 00:33:37;;;;;;;21.57;17.60;;;4.20;99.90;;;;;;5093382;28;20659;-65
2020/12/06 00:36:02;;;;;;;19.03;17.03;;;4.10;99.90;;;;;;5074511;28;20501;-65
2020/12/06 00:38:28;;;;;;;19.00;16.60;;;4.10;99.90;;;;;;5073131;28;20246;-65
2020/12/06 00:40:53;;;;;;;17.60;15.30;;;4.10;99.90;;;;;;5072893;28;20615;-65
2020/12/06 00:43:19;;;;;;;17.30;15.50;;;4.10;99.90;;;;;;5073196;28;20536;-65
2020/12/06 00:45:44;;;;;;;17.50;15.70;;;4.10;99.90;;;;;;5088957;28;20186;-65
2020/12/06 00:48:10;;;;;;;17.80;15.23;;;4.10;99.90;;;;;;5092847;28;20528;-65
2020/12/06 00:50:35;;;;;;;16.67;14.87;;;4.10;99.90;;;;;;5093007;28;20151;-65
2020/12/06 00:53:01;;;;;;;18.63;16.50;;;4.10;99.90;;;;;;5091691;28;20151;-65
2020/12/06 00:55:27;;;;;;;17.17;15.43;;;4.10;99.90;;;;;;5092934;28;20234;-65
2020/12/06 00:57:52;;;;;;;18.40;15.40;;;4.10;99.90;;;;;;5092798;28;20674;-65
2020/12/06 01:00:18;;;;;;;16.40;14.80;;;4.10;99.90;;;;;;5093465;28;20159;-65
2020/12/06 01:02:43;;;;;;;16.10;14.40;;;4.00;99.90;;;;;;5092916;28;20291;-65
2020/12/06 01:05:09;;;;;;;17.00;15.30;;;4.00;99.90;;;;;;5092929;28;20165;-65
2020/12/06 01:07:40;;;;;;;17.17;15.30;;;4.10;99.90;;;;;;5092720;28;20159;-65
2020/12/06 01:10:07;;;;;;;19.03;16.00;;;4.00;99.90;;;;;;5092734;28;20206;-65
2020/12/06 01:12:33;;;;;;;17.70;15.70;;;4.00;99.90;;;;;;5084138;28;20464;-65
2020/12/06 01:14:59;;;;;;;16.00;14.40;;;4.00;99.90;;;;;;5072947;28;20468;-65
2020/12/06 01:17:24;;;;;;;18.43;16.23;;;4.00;99.90;;;;;;5072920;28;20477;-65
2020/12/06 01:19:50;;;;;;;19.23;17.07;;;4.00;99.90;;;;;;5089239;28;20198;-65
2020/12/06 01:22:15;;;;;;;19.77;17.03;;;4.00;99.90;;;;;;5072495;28;20693;-65
2020/12/06 01:24:41;;;;;;;17.90;15.60;;;4.00;99.90;;;;;;5072641;28;20667;-65
2020/12/06 01:27:06;;;;;;;18.33;15.90;;;3.90;99.90;;;;;;5072661;28;20238;-65
2020/12/06 01:29:32;;;;;;;18.30;16.17;;;3.90;99.90;;;;;;5072466;28;20183;-65
2020/12/06 01:31:57;;;;;;;16.83;15.13;;;3.90;99.90;;;;;;5072616;28;20166;-65
2020/12/06 01:34:23;;;;;;;17.40;15.07;;;3.90;99.90;;;;;;5072356;28;20497;-65
2020/12/06 01:36:51;;;;;;;19.67;16.40;;;3.90;99.90;;;;;;5088975;28;20667;-65
2020/12/06 01:39:17;;;;;;;19.00;16.63;;;3.90;99.90;;;;;;5092755;28;20253;-65
2020/12/06 01:41:43;;;;;;;18.47;16.47;;;3.90;99.90;;;;;;5090891;28;20385;-65
2020/12/06 01:44:08;;;;;;;16.40;14.70;;;3.90;99.90;;;;;;5072258;28;20405;-65
2020/12/06 01:46:37;;;;;;;18.33;16.33;;;3.90;99.90;;;;;;5072324;28;20171;-65
2020/12/06 01:49:04;;;;;;;16.17;14.47;;;3.90;99.90;;;;;;5072186;28;20202;-65
2020/12/06 01:51:30;;;;;;;21.07;16.40;;;3.90;99.90;;;;;;5085571;28;20423;-65
2020/12/06 01:53:56;;;;;;;27.40;17.33;;;3.90;99.90;;;;;;5092350;28;20416;-65
2020/12/06 01:56:21;;;;;;;16.30;14.60;;;3.90;99.90;;;;;;5093462;28;20553;-65
2020/12/06 01:58:47;;;;;;;17.50;15.70;;;3.90;99.90;;;;;;5096066;28;20396;-65
2020/12/06 02:01:12;;;;;;;17.10;15.37;;;3.90;99.90;;;;;;5096217;28;20216;-65
2020/12/06 02:03:38;;;;;;;18.03;16.13;;;3.90;99.90;;;;;;5096110;28;20159;-65
2020/12/06 02:06:05;;;;;;;18.10;16.13;;;3.90;99.90;;;;;;5095806;28;20155;-65
2020/12/06 02:08:31;;;;;;;15.60;14.10;;;3.90;99.90;;;;;;5095913;28;20491;-65
2020/12/06 02:10:56;;;;;;;17.00;15.30;;;3.90;99.90;;;;;;5095882;28;20433;-65
2020/12/06 02:13:23;;;;;;;16.80;15.10;;;3.90;99.90;;;;;;5079171;28;20882;-65
2020/12/06 02:15:50;;;;;;;15.87;13.70;;;3.90;99.90;;;;;;5075616;28;20560;-65
2020/12/06 02:18:16;;;;;;;18.50;16.47;;;3.90;99.90;;;;;;5075397;28;20394;-65
2020/12/06 02:20:42;;;;;;;18.17;16.17;;;3.90;99.90;;;;;;5081967;28;20953;-65
2020/12/06 02:23:08;;;;;;;17.30;15.60;;;3.80;99.90;;;;;;5095610;28;20433;-65
2020/12/06 02:25:35;;;;;;;17.57;15.20;;;3.80;99.90;;;;;;5095588;28;20408;-65
2020/12/06 02:28:01;;;;;;;17.00;15.30;;;3.80;99.90;;;;;;5095485;28;20175;-65
2020/12/06 02:30:27;;;;;;;17.70;16.00;;;3.80;99.90;;;;;;5095478;28;20812;-65
2020/12/06 02:32:52;;;;;;;16.93;15.13;;;3.80;99.90;;;;;;5095460;28;20380;-65
2020/12/06 02:35:18;;;;;;;18.10;15.73;;;3.80;99.90;;;;;;5095693;28;20151;-65
2020/12/06 02:37:43;;;;;;;16.63;14.93;;;3.80;99.90;;;;;;5095500;28;20233;-65
2020/12/06 02:40:09;;;;;;;15.63;14.03;;;3.80;99.90;;;;;;5095205;28;20159;-65
2020/12/06 02:42:34;;;;;;;17.27;15.40;;;3.80;99.90;;;;;;5085350;28;20187;-65
2020/12/06 02:45:00;;;;;;;17.37;15.60;;;3.80;99.90;;;;;;5093438;28;20170;-65
2020/12/06 02:47:25;;;;;;;18.70;16.80;;;3.80;99.90;;;;;;5093607;28;20632;-65
2020/12/06 02:49:51;;;;;;;16.20;14.60;;;3.80;99.90;;;;;;5095040;28;20198;-65
2020/12/06 02:52:16;;;;;;;16.80;14.90;;;3.80;99.90;;;;;;5094976;28;20238;-65
2020/12/06 02:54:42;;;;;;;17.97;16.07;;;3.80;99.90;;;;;;5095127;28;20234;-65
2020/12/06 02:57:07;;;;;;;19.23;16.23;;;3.80;99.90;;;;;;5095552;28;20155;-65
2020/12/06 02:59:33;;;;;;;16.57;14.40;;;3.80;99.90;;;;;;5094740;28;20170;-65
2020/12/06 03:01:58;;;;;;;17.33;15.53;;;3.80;99.90;;;;;;5094886;28;20219;-65
2020/12/06 03:04:24;;;;;;;16.33;14.67;;;3.80;99.90;;;;;;5094732;28;20167;-65
2020/12/06 03:06:49;;;;;;;16.80;14.67;;;3.80;99.90;;;;;;5094644;28;20162;-65
2020/12/06 03:09:15;;;;;;;18.57;16.60;;;3.80;99.90;;;;;;5095151;28;20310;-65
2020/12/06 03:11:40;;;;;;;16.40;14.30;;;3.90;99.90;;;;;;5093394;28;20166;-65
2020/12/06 03:14:06;;;;;;;16.53;14.73;;;3.90;99.90;;;;;;5079984;28;20546;-65
2020/12/06 03:16:32;;;;;;;16.70;15.03;;;4.00;99.90;;;;;;5095421;28;20166;-65
2020/12/06 03:18:57;;;;;;;16.30;13.83;;;4.00;99.90;;;;;;5094341;28;20210;-65
2020/12/06 03:21:23;;;;;;;15.87;14.27;;;4.00;99.90;;;;;;5094449;28;20187;-65
2020/12/06 03:23:48;;;;;;;16.43;14.70;;;4.10;99.90;;;;;;5094280;28;20620;-65
2020/12/06 03:26:14;;;;;;;15.57;13.37;;;4.10;99.90;;;;;;5094371;28;20170;-65
2020/12/06 03:28:39;;;;;;;15.93;14.30;;;4.10;99.90;;;;;;5094556;28;20182;-65
2020/12/06 03:31:05;;;;;;;16.10;14.40;;;4.10;99.90;;;;;;5094285;28;20154;-65
2020/12/06 03:33:30;;;;;;;14.30;12.90;;;4.20;99.90;;;;;;5094314;28;20517;-65
2020/12/06 03:35:56;;;;;;;18.97;14.27;;;4.20;99.90;;;;;;5094367;28;20185;-65
2020/12/06 03:38:21;;;;;;;14.97;13.43;;;4.20;99.90;;;;;;5094179;28;20192;-65
2020/12/06 03:40:47;;;;;;;13.60;12.20;;;4.20;99.90;;;;;;5094247;28;20513;-65
2020/12/06 03:43:12;;;;;;;14.23;12.83;;;4.20;99.90;;;;;;5076794;28;20176;-65
2020/12/06 03:45:38;;;;;;;15.93;14.17;;;4.20;99.90;;;;;;5074101;28;20167;-65
2020/12/06 03:48:03;;;;;;;15.63;13.77;;;4.20;99.90;;;;;;5073515;28;20183;-65
2020/12/06 03:50:29;;;;;;;14.37;12.30;;;4.20;99.90;;;;;;5073562;28;20658;-65
2020/12/06 03:52:54;;;;;;;15.20;13.60;;;4.20;99.90;;;;;;5091516;28;20198;-65
2020/12/06 03:55:20;;;;;;;15.03;13.37;;;4.10;99.90;;;;;;5094089;28;20166;-65
2020/12/06 03:57:45;;;;;;;14.10;11.97;;;4.10;99.90;;;;;;5094132;28;20563;-65
2020/12/06 04:00:11;;;;;;;16.50;14.80;;;4.10;99.90;;;;;;5093876;28;20452;-65
2020/12/06 04:02:36;;;;;;;14.43;12.93;;;4.10;99.90;;;;;;5093690;28;20156;-65
2020/12/06 04:05:03;;;;;;;14.30;12.63;;;4.10;99.90;;;;;;5093566;28;20205;-65
2020/12/06 04:07:29;;;;;;;14.50;13.00;;;4.20;99.90;;;;;;5092528;28;20204;-65
2020/12/06 04:09:54;;;;;;;14.53;12.77;;;4.20;99.90;;;;;;5093621;28;20456;-65
2020/12/06 04:12:20;;;;;;;14.47;12.97;;;4.20;99.90;;;;;;5083558;28;20184;-65
2020/12/06 04:14:45;;;;;;;15.63;13.90;;;4.20;99.90;;;;;;5073135;28;20162;-65
2020/12/06 04:17:11;;;;;;;14.23;12.83;;;4.30;99.90;;;;;;5073159;28;20248;-65
2020/12/06 04:19:36;;;;;;;15.90;13.27;;;4.20;99.90;;;;;;5072741;28;20151;-65
2020/12/06 04:22:06;;;;;;;14.03;12.63;;;4.30;99.90;;;;;;5073251;28;20241;-65
2020/12/06 04:24:33;;;;;;;13.97;12.47;;;4.20;99.90;;;;;;5073377;28;20160;-65
2020/12/06 04:26:59;;;;;;;13.87;12.47;;;4.20;99.90;;;;;;5091289;28;20769;-65
2020/12/06 04:29:25;;;;;;;14.83;13.17;;;4.20;99.90;;;;;;5091952;28;20438;-65
2020/12/06 04:31:50;;;;;;;13.87;12.37;;;4.20;99.90;;;;;;5093276;28;20398;-65
2020/12/06 04:34:16;;;;;;;13.53;12.13;;;4.20;99.90;;;;;;5093111;28;20156;-65
2020/12/06 04:36:41;;;;;;;16.40;12.87;;;4.20;99.90;;;;;;5093220;28;20631;-65
2020/12/06 04:39:07;;;;;;;15.60;13.90;;;4.10;99.90;;;;;;5093409;28;20178;-65
2020/12/06 04:41:32;;;;;;;14.73;13.27;;;4.20;99.90;;;;;;5088185;28;20320;-65
2020/12/06 04:43:58;;;;;;;15.27;13.67;;;4.20;99.90;;;;;;5075214;28;20195;-65
2020/12/06 04:46:26;;;;;;;13.50;12.10;;;4.20;99.90;;;;;;5072833;28;20159;-65
2020/12/06 04:49:20;;;;;;;15.50;13.90;;;4.20;99.90;;;;;;5072682;28;20465;-65
2020/12/06 04:51:54;;;;;;;16.17;13.80;;;4.20;99.90;;;;;;5071915;28;20577;-65
2020/12/06 04:54:20;;;;;;;12.90;11.60;;;4.20;99.90;;;;;;5073164;28;20460;-65
2020/12/06 04:56:49;;;;;;;13.03;11.63;;;4.20;99.90;;;;;;5072729;28;20888;-65
2020/12/06 04:59:19;;;;;;;13.77;12.13;;;4.10;99.90;;;;;;5075193;28;20504;-65
2020/12/06 05:01:46;;;;;;;13.10;11.47;;;4.10;99.90;;;;;;5092855;28;20418;-65
2020/12/06 05:04:15;;;;;;;16.50;12.87;;;4.10;99.90;;;;;;5093011;28;20409;-65
2020/12/06 05:06:44;;;;;;;13.20;11.90;;;4.10;99.90;;;;;;5093219;28;20492;-65
2020/12/06 05:09:11;;;;;;;12.73;11.37;;;4.10;99.90;;;;;;5092875;28;20457;-65
2020/12/06 05:11:38;;;;;;;13.60;12.20;;;4.10;99.90;;;;;;5090728;28;20862;-65
2020/12/06 05:14:07;;;;;;;14.20;11.57;;;4.10;99.90;;;;;;5072642;28;20394;-65
2020/12/06 05:16:35;;;;;;;12.23;11.03;;;4.10;99.90;;;;;;5078894;28;20414;-65
2020/12/06 05:19:01;;;;;;;13.83;11.70;;;4.10;99.90;;;;;;5093147;28;20397;-65
2020/12/06 05:24:11;;;;;;;14.23;12.73;;;4.10;99.90;;;;;;5110936;27;20502;-65
2020/12/06 05:26:37;;;;;;;12.80;11.50;;;4.10;99.90;;;;;;5110728;28;20411;-65
2020/12/06 05:29:04;;;;;;;13.20;11.83;;;4.20;99.90;;;;;;5110721;28;20251;-65
2020/12/06 05:31:30;;;;;;;12.80;11.23;;;4.20;99.90;;;;;;5110751;28;20619;-65
2020/12/06 05:33:55;;;;;;;12.83;11.47;;;4.20;99.90;;;;;;5100365;28;20413;-65
2020/12/06 05:36:21;;;;;;;12.97;11.57;;;4.20;99.90;;;;;;5090408;28;20753;-65
2020/12/06 05:38:47;;;;;;;13.80;12.03;;;4.20;99.90;;;;;;5090453;28;20619;-65
2020/12/06 05:41:13;;;;;;;16.40;12.07;;;4.30;99.90;;;;;;5090604;28;20182;-65
2020/12/06 05:43:38;;;;;;;13.00;11.70;;;4.30;99.90;;;;;;5090089;28;20196;-65
2020/12/06 05:48:42;;;;;;;15.13;11.23;;;4.30;99.90;;;;;;5110962;27;20506;-65
2020/12/06 05:51:08;;;;;;;13.33;12.00;;;4.30;99.90;;;;;;5099019;28;20808;-65
2020/12/06 05:53:35;;;;;;;11.60;10.40;;;4.20;99.90;;;;;;5089149;28;20389;-65
2020/12/06 05:56:11;;;;;;;12.50;10.70;;;4.20;99.90;;;;;;5090441;28;20389;-65
2020/12/06 05:58:38;;;;;;;11.60;10.50;;;4.30;99.90;;;;;;5089468;28;20389;-65
2020/12/06 06:01:03;;;;;;;11.33;10.00;;;4.30;99.90;;;;;;5090300;28;20405;-65
2020/12/06 06:03:34;;;;;;;17.13;11.53;;;4.40;99.90;;;;;;5090398;28;20755;-65
2020/12/06 06:06:03;;;;;;;12.60;10.00;;;4.40;99.90;;;;;;5090196;28;20685;-65
2020/12/06 06:08:29;;;;;;;10.53;9.13;;;4.50;99.90;;;;;;5090946;28;20445;-65
2020/12/06 06:11:15;;;;;;;11.03;9.93;;;4.50;99.90;;;;;;5092277;28;20745;-65
2020/12/06 06:14:02;;;;;;;11.73;10.30;;;4.60;99.90;;;;;;5110754;28;20408;-65
2020/12/06 06:16:30;;;;;;;12.33;10.00;;;4.60;99.90;;;;;;5109379;28;20392;-65
2020/12/06 06:18:57;;;;;;;12.37;10.80;;;4.60;99.90;;;;;;5110508;28;20391;-65
2020/12/06 06:21:30;;;;;;;11.10;9.97;;;4.60;99.90;;;;;;5110337;28;20849;-65
2020/12/06 06:24:00;;;;;;;11.47;10.37;;;4.70;99.90;;;;;;5109664;28;20747;-65
2020/12/06 06:26:28;;;;;;;11.90;10.70;;;4.70;99.90;;;;;;5089975;28;20390;-65
2020/12/06 06:28:54;;;;;;;11.13;10.03;;;4.70;99.90;;;;;;5089763;28;20397;-65
2020/12/06 06:31:21;;;;;;;13.03;11.73;;;4.70;99.90;;;;;;5090062;28;20408;-65
2020/12/06 06:33:48;;;;;;;11.60;10.50;;;4.80;99.90;;;;;;5089735;28;20201;-65
2020/12/06 06:36:14;;;;;;;11.47;10.37;;;4.80;99.90;;;;;;5089683;28;20390;-65
2020/12/06 06:38:44;;;;;;;11.47;10.37;;;4.80;99.90;;;;;;5089890;28;20395;-65
2020/12/06 06:41:10;;;;;;;12.90;11.50;;;4.80;99.90;;;;;;5089479;28;20262;-65
2020/12/06 06:43:37;;;;;;;14.83;11.13;;;4.80;99.90;;;;;;5089434;28;20413;-65
2020/12/06 06:46:19;;;;;;;12.67;11.43;;;4.80;99.90;;;;;;5090207;28;20389;-65
2020/12/06 06:48:47;;;;;;;13.23;11.47;;;4.80;99.90;;;;;;5089622;28;20400;-65
2020/12/06 06:51:21;;;;;;;11.77;10.60;;;4.80;99.90;;;;;;5089225;28;20780;-65
2020/12/06 06:53:48;;;;;;;13.77;12.40;;;4.80;99.90;;;;;;5089749;28;20396;-65
2020/12/06 06:56:18;;;;;;;12.33;10.90;;;4.80;99.90;;;;;;5089177;28;20395;-65
2020/12/06 06:58:47;;;;;;;13.00;11.70;;;4.80;99.90;;;;;;5090281;28;20920;-65
2020/12/06 07:01:17;;;;;;;13.00;11.33;;;4.70;99.90;;;;;;5096510;28;20514;-65
2020/12/06 07:03:46;;;;;;;11.97;10.60;;;4.70;99.90;;;;;;5095993;28;20382;-65
2020/12/06 07:06:34;;;;;;;11.57;10.37;;;4.70;99.90;;;;;;5096007;28;20392;-65
2020/12/06 07:09:01;;;;;;;13.20;11.80;;;4.70;99.90;;;;;;5094759;28;20404;-65
2020/12/06 07:11:27;;;;;;;13.07;11.70;;;4.60;99.90;;;;;;5094174;28;20382;-66
2020/12/06 07:13:52;;;;;;;12.80;11.40;;;4.60;99.90;;;;;;5076191;28;20398;-65
2020/12/06 07:16:17;;;;;;;15.70;11.70;;;4.60;99.90;;;;;;5087381;28;20253;-65
2020/12/06 07:18:43;;;;;;;13.57;12.20;;;4.60;99.90;;;;;;5095667;28;20159;-65
2020/12/06 07:21:08;;;;;;;14.70;12.53;;;4.60;99.90;;;;;;5095712;28;20183;-65
2020/12/06 07:23:34;;;;;;;13.77;12.33;;;4.60;99.90;;;;;;5095531;28;20690;-65
2020/12/06 07:26:00;;;;;;;13.10;11.70;;;4.60;99.90;;;;;;5095507;28;20210;-66
2020/12/06 07:28:26;;;;;;;13.67;12.30;;;4.60;99.90;;;;;;5095663;28;20476;-65
2020/12/06 07:30:51;;;;;;;13.70;12.20;;;4.60;99.90;;;;;;5095695;28;20254;-65
2020/12/06 07:33:17;;;;;;;14.10;12.47;;;4.60;99.90;;;;;;5093241;28;20179;-65
2020/12/06 07:35:42;;;;;;;13.67;12.27;;;4.50;99.90;;;;;;5095343;28;20151;-65
2020/12/06 07:38:08;;;;;;;13.43;12.07;;;4.50;99.90;;;;;;5095414;28;20172;-65
2020/12/06 07:40:33;;;;;;;13.60;12.20;;;4.50;99.90;;;;;;5091537;28;20176;-65
2020/12/06 07:43:10;;;;;;;14.43;12.90;;;4.50;99.90;;;;;;5075435;28;20189;-65
2020/12/06 07:45:36;;;;;;;14.73;13.10;;;4.50;99.90;;;;;;5074989;28;20308;-65
2020/12/06 07:48:01;;;;;;;14.70;13.10;;;4.50;99.90;;;;;;5074772;28;20547;-65
2020/12/06 07:50:27;;;;;;;15.30;13.03;;;4.50;99.90;;;;;;5088083;28;20185;-65
2020/12/06 07:52:53;;;;;;;15.77;13.13;;;4.50;99.90;;;;;;5094990;28;20776;-65
2020/12/06 07:55:18;;;;;;;15.90;13.43;;;4.50;99.90;;;;;;5094950;28;20158;-66
2020/12/06 07:58:06;;;;;;;16.60;14.90;;;4.50;99.90;;;;;;5095654;28;20226;-65
2020/12/06 08:00:37;;;;;;;16.60;14.93;;;4.60;99.90;;;;;;5093992;28;20160;-65
2020/12/06 08:03:05;;;;;;;16.13;14.50;;;4.60;99.90;;;;;;5093354;28;20396;-65
2020/12/06 08:05:35;;;;;;;16.97;15.17;;;4.60;99.90;;;;;;5077108;28;20398;-65
2020/12/06 08:08:06;;;;;;;15.80;14.20;;;4.60;99.90;;;;;;5094015;28;20450;-65
2020/12/06 08:10:34;;;;;;;16.00;14.40;;;4.60;99.90;;;;;;5088953;28;20508;-65
2020/12/06 08:13:00;;;;;;;17.00;15.23;;;4.60;99.90;;;;;;5074481;28;20390;-65
2020/12/06 08:15:27;;;;;;;19.07;15.50;;;4.60;99.90;;;;;;5074430;28;20390;-65
2020/12/06 08:17:53;;;;;;;16.40;14.80;;;4.60;99.90;;;;;;5074527;28;20394;-65
2020/12/06 08:20:22;;;;;;;18.10;15.47;;;4.60;99.90;;;;;;5072948;28;20425;-65
2020/12/06 08:22:52;;;;;;;18.10;16.20;;;4.70;99.90;;;;;;5074195;28;20762;-65
2020/12/06 08:25:20;;;;;;;16.63;14.93;;;4.70;99.90;;;;;;5093601;28;20411;-65
2020/12/06 08:27:46;;;;;;;15.90;14.20;;;4.70;99.90;;;;;;5094628;28;20810;-65
2020/12/06 08:30:15;;;;;;;16.30;14.50;;;4.80;99.90;;;;;;5093018;28;20397;-65
2020/12/06 08:32:48;;;;;;;16.70;14.43;;;4.80;99.90;;;;;;5094186;28;20397;-65
2020/12/06 08:35:14;;;;;;;18.03;16.20;;;4.80;99.90;;;;;;5094084;28;20393;-65
2020/12/06 08:37:39;;;;;;;16.53;14.83;;;4.80;99.90;;;;;;5094283;28;20890;-65
2020/12/06 08:40:05;;;;;;;17.43;15.70;;;4.80;99.90;;;;;;5091916;28;20595;-65
2020/12/06 08:42:30;;;;;;;17.07;15.33;;;4.90;99.90;;;;;;5073592;28;20222;-65
2020/12/06 08:45:00;;;;;;;18.93;15.53;;;4.90;99.90;;;;;;5073708;28;20240;-65
2020/12/06 08:47:40;;;;;;;15.87;14.20;;;4.90;99.90;;;;;;5073419;28;20199;-65
2020/12/06 08:50:09;;;;;;;17.40;15.70;;;4.90;99.90;;;;;;5073666;28;20390;-66
2020/12/06 08:52:35;;;;;;;16.87;15.17;;;5.00;99.90;;;;;;5056247;28;20394;-65
2020/12/06 08:55:00;;;;;;;16.83;15.07;;;5.00;99.90;;;;;;5074485;28;20541;-66
2020/12/06 08:57:27;;;;;;;20.43;16.47;;;5.10;99.90;;;;;;5074267;28;20650;-66
2020/12/06 08:59:53;;;;;;;14.23;12.70;;;5.10;99.90;;;;;;5073725;28;20208;-66
2020/12/06 09:02:23;;;;;;;16.77;15.07;;;5.10;99.90;;;;;;5072468;28;20406;-66
2020/12/06 09:04:49;;;;;;;17.27;14.53;;;5.10;99.90;;;;;;5072222;28;20399;-66
2020/12/06 09:07:15;;;;;;;16.50;14.80;;;5.10;99.90;;;;;;5074003;28;20954;-66
2020/12/06 09:09:41;;;;;;;16.73;14.97;;;5.20;99.90;;;;;;5073777;28;20394;-66
2020/12/06 09:12:06;;;;;;;18.07;15.00;;;5.20;99.90;;;;;;5078172;28;20665;-65
2020/12/06 09:14:32;;;;;;;17.40;15.57;;;5.20;99.90;;;;;;5089904;28;20176;-65
2020/12/06 09:16:57;;;;;;;16.03;14.00;;;5.20;99.90;;;;;;5093630;28;20524;-66
2020/12/06 09:19:23;;;;;;;14.60;13.10;;;5.30;99.90;;;;;;5093375;28;20164;-66
2020/12/06 09:21:49;;;;;;;16.10;14.00;;;5.40;99.90;;;;;;5093662;28;20155;-65
2020/12/06 09:24:14;;;;;;;17.57;14.87;;;5.40;99.90;;;;;;5093580;28;20203;-66
2020/12/06 09:26:40;;;;;;;17.00;15.20;;;5.40;99.90;;;;;;5093152;28;20182;-66
2020/12/06 09:29:05;;;;;;;18.10;16.20;;;5.40;99.90;;;;;;5093286;28;20155;-66
2020/12/06 09:31:31;;;;;;;16.90;14.50;;;5.40;99.90;;;;;;5092433;28;20178;-66
2020/12/06 09:33:56;;;;;;;16.37;14.67;;;5.40;99.90;;;;;;5093253;28;20152;-66
2020/12/06 09:36:22;;;;;;;18.20;16.30;;;5.40;99.90;;;;;;5093940;28;20156;-66
2020/12/06 09:38:48;;;;;;;20.20;16.13;;;5.50;99.90;;;;;;5093453;28;20220;-66
2020/12/06 09:41:13;;;;;;;20.33;16.70;;;5.50;99.90;;;;;;5079449;28;20204;-66
2020/12/06 09:43:40;;;;;;;19.57;16.50;;;5.50;99.90;;;;;;5072956;28;20158;-66
2020/12/06 09:46:07;;;;;;;19.47;16.67;;;5.50;99.90;;;;;;5071758;28;20191;-66
2020/12/06 09:48:33;;;;;;;19.20;16.77;;;5.50;99.90;;;;;;5078640;28;21010;-66
2020/12/06 09:50:59;;;;;;;18.00;16.07;;;5.50;99.90;;;;;;5093831;28;20423;-66
2020/12/06 09:53:24;;;;;;;21.97;17.20;;;5.40;99.90;;;;;;5093041;28;20165;-66
2020/12/06 09:55:50;;;;;;;18.77;16.20;;;5.40;99.90;;;;;;5092958;28;20164;-66
2020/12/06 09:58:15;;;;;;;20.03;17.67;;;5.40;99.90;;;;;;5093262;28;20199;-65
2020/12/06 10:00:42;;;;;;;21.13;18.80;;;5.40;99.90;;;;;;5092890;28;20247;-66
2020/12/06 10:03:07;;;;;;;22.30;18.80;;;5.40;99.90;;;;;;5093281;28;20164;-66
2020/12/06 10:05:33;;;;;;;21.37;18.80;;;5.30;99.90;;;;;;5092693;28;20417;-66
2020/12/06 10:07:58;;;;;;;21.57;18.37;;;5.30;99.90;;;;;;5092822;28;20185;-66
2020/12/06 10:10:24;;;;;;;23.67;19.90;;;5.30;99.90;;;;;;5086288;28;20182;-66
2020/12/06 10:12:49;;;;;;;23.30;19.00;;;5.30;99.90;;;;;;5072648;28;20152;-66
2020/12/06 10:15:15;;;;;;;25.17;19.73;;;5.30;99.90;;;;;;5072879;28;20168;-66
2020/12/06 10:17:40;;;;;;;26.77;19.17;;;5.40;99.90;;;;;;5072919;28;20152;-65
2020/12/06 10:20:07;;;;;;;24.40;19.00;;;5.40;99.90;;;;;;5073455;28;20192;-66
2020/12/06 10:22:33;;;;;;;22.87;19.17;;;5.50;99.90;;;;;;5078049;28;20173;-66
2020/12/06 10:24:58;;;;;;;22.97;18.37;;;5.50;99.90;;;;;;5092706;28;20439;-66
2020/12/06 10:27:24;;;;;;;23.93;17.87;;;5.50;99.90;;;;;;5092539;28;20189;-66
2020/12/06 10:29:49;;;;;;;25.40;19.93;;;5.50;99.90;;;;;;5092893;28;20155;-66
2020/12/06 10:32:15;;;;;;;27.10;20.23;;;5.60;99.90;;;;;;5092673;28;20184;-65
2020/12/06 10:34:40;;;;;;;28.00;20.40;;;5.60;99.90;;;;;;5095678;28;20153;-66
2020/12/06 10:37:06;;;;;;;26.50;20.60;;;5.60;99.90;;;;;;5096427;28;20171;-66
2020/12/06 10:39:31;;;;;;;26.17;22.20;;;5.60;99.90;;;;;;5094042;28;20243;-66
2020/12/06 10:41:57;;;;;;;28.97;19.47;;;5.70;99.90;;;;;;5076149;28;20682;-66
2020/12/06 10:44:24;;;;;;;26.07;21.60;;;5.60;99.90;;;;;;5076235;28;20160;-66
2020/12/06 10:46:51;;;;;;;29.60;23.20;;;5.60;99.90;;;;;;5075196;28;20888;-65
2020/12/06 10:49:17;;;;;;;28.33;21.63;;;5.60;99.90;;;;;;5076222;28;20906;-66
2020/12/06 10:51:45;;;;;;;31.97;23.23;;;5.60;99.90;;;;;;5074915;28;20943;-66
2020/12/06 10:54:11;;;;;;;31.50;23.37;;;5.50;99.90;;;;;;5075870;28;20415;-66
2020/12/06 10:56:38;;;;;;;31.90;21.77;;;5.60;99.90;;;;;;5075581;28;20492;-66
2020/12/06 10:59:04;;;;;;;29.27;21.90;;;5.60;99.90;;;;;;5074564;28;20758;-66
2020/12/06 11:01:31;;;;;;;28.87;21.20;;;5.60;99.90;;;;;;5076129;28;20408;-66
2020/12/06 11:03:58;;;;;;;31.07;23.87;;;5.70;99.90;;;;;;5075860;28;20748;-66
2020/12/06 11:06:24;;;;;;;29.77;22.50;;;5.70;99.90;;;;;;5075818;28;20397;-66
2020/12/06 11:08:50;;;;;;;28.60;22.20;;;5.80;99.90;;;;;;5075682;28;20465;-66
2020/12/06 11:11:17;;;;;;;31.83;22.20;;;5.80;99.90;;;;;;5075714;28;20405;-66
2020/12/06 11:13:44;;;;;;;28.27;21.27;;;6.00;99.90;;;;;;5087169;28;20496;-66
2020/12/06 11:16:10;;;;;;;26.70;20.83;;;6.00;99.90;;;;;;5074310;28;20468;-66
2020/12/06 11:18:36;;;;;;;26.13;20.57;;;6.10;99.90;;;;;;5074254;28;20397;-66
2020/12/06 11:21:02;;;;;;;26.27;20.03;;;6.20;99.90;;;;;;5075323;28;20432;-66
2020/12/06 11:23:27;;;;;;;25.07;18.83;;;6.20;99.90;;;;;;5075524;28;20487;-66
2020/12/06 11:25:53;;;;;;;24.27;18.77;;;6.20;99.90;;;;;;5075441;28;20865;-66
2020/12/06 11:28:20;;;;;;;23.37;18.80;;;6.20;99.90;;;;;;5073969;28;20597;-66
2020/12/06 11:30:46;;;;;;;24.03;17.90;;;6.30;99.90;;;;;;5074632;28;20404;-66
2020/12/06 11:33:11;;;;;;;22.23;17.93;;;6.30;99.90;;;;;;5075143;28;20394;-66
2020/12/06 11:35:37;;;;;;;19.40;16.00;;;6.20;99.90;;;;;;5074233;28;20243;-66
2020/12/06 11:38:03;;;;;;;26.07;20.03;;;6.10;99.90;;;;;;5075289;28;20185;-66
2020/12/06 11:40:29;;;;;;;20.90;17.60;;;6.10;99.90;;;;;;5084922;28;20187;-66
2020/12/06 11:42:54;;;;;;;22.57;18.10;;;6.00;99.90;;;;;;5095434;28;20480;-66
2020/12/06 11:45:20;;;;;;;22.13;17.53;;;6.00;99.90;;;;;;5095499;28;20150;-66
2020/12/06 11:47:45;;;;;;;23.00;17.40;;;6.00;99.90;;;;;;5087166;28;20216;-66
2020/12/06 11:50:11;;;;;;;22.07;17.10;;;6.00;99.90;;;;;;5075227;28;20240;-66
2020/12/06 11:52:36;;;;;;;20.97;16.23;;;6.00;99.90;;;;;;5074884;28;20152;-66
2020/12/06 11:55:02;;;;;;;20.03;14.53;;;6.10;99.90;;;;;;5074730;28;20492;-66
2020/12/06 11:57:28;;;;;;;16.07;14.23;;;6.10;99.90;;;;;;5073597;28;20160;-66
2020/12/06 11:59:54;;;;;;;16.47;13.80;;;6.20;99.90;;;;;;5075248;28;20396;-66
2020/12/06 12:02:19;;;;;;;15.63;14.03;;;6.20;99.90;;;;;;5074588;28;20246;-66
2020/12/06 12:04:45;;;;;;;17.40;14.57;;;6.30;99.90;;;;;;5075474;28;20184;-66
2020/12/06 12:07:11;;;;;;;19.00;14.50;;;6.30;99.90;;;;;;5074516;28;20720;-66
2020/12/06 12:09:37;;;;;;;16.23;13.60;;;6.30;99.90;;;;;;5077908;28;20424;-66
2020/12/06 12:12:02;;;;;;;14.27;11.40;;;6.40;99.90;;;;;;5094974;28;20160;-66
2020/12/06 12:14:28;;;;;;;13.30;10.57;;;6.40;99.90;;;;;;5095047;28;20165;-66
2020/12/06 12:16:53;;;;;;;13.87;12.37;;;6.40;99.90;;;;;;5094917;28;20288;-66
2020/12/06 12:19:19;;;;;;;15.67;12.13;;;6.40;99.90;;;;;;5094771;28;20159;-66
2020/12/06 12:21:44;;;;;;;17.73;13.93;;;6.40;99.90;;;;;;5086815;28;20209;-66
2020/12/06 12:24:10;;;;;;;16.20;13.80;;;6.40;99.90;;;;;;5074596;28;20169;-66
2020/12/06 12:26:35;;;;;;;22.97;17.63;;;6.50;99.90;;;;;;5074325;28;20210;-66
2020/12/06 12:29:01;;;;;;;26.30;20.07;;;6.50;99.90;;;;;;5074177;28;20240;-66
2020/12/06 12:31:28;;;;;;;28.43;23.57;;;6.50;99.90;;;;;;5074087;28;20162;-66
2020/12/06 12:33:53;;;;;;;27.53;23.90;;;6.50;99.90;;;;;;5073917;28;20190;-66
2020/12/06 12:36:19;;;;;;;31.77;25.80;;;6.40;99.90;;;;;;5073947;28;20416;-66
2020/12/06 12:38:44;;;;;;;31.43;25.53;;;6.40;99.90;;;;;;5074351;28;20265;-66
2020/12/06 12:41:10;;;;;;;27.67;24.50;;;6.40;99.90;;;;;;5075218;28;20192;-66